Aérodrome :
LOGIN :

S'inscrire | Disclaimer

   EN    FR    IT 

 










Légende :    VFR   VFR Marginal   IFR   IFR Intensif   IFR Très Intensif
Visi : 
Plafond : 
>= 8 km
>= 3000ft
5 à 8 km
1000 à 3000 ft
1500m à 5 km
500 à 1000 ft
800 à 1500m
200 à 500 ft
< 800m
< 200 ft
Symboles :   Orages  Brouillard  Fortes neiges  Fortes précipitations  Vent > 20 kt
SIGMETs :   Divers  Orages  Givrage  Turbulence  Onde Orograph.  Cendres Volcan.







- Altitude de l'aérodrome : 13 ft
- Code IATA : GOA


LIMJ - Genoa Cristoforo Colombo

DERNIER METAR :
  • 242020Z 03004KT 360V060 9999 SCT050 21/16 Q1015

METARs EXPIRÉS :
  • 241950Z 32004KT 9999 FEW035 SCT050 21/17 Q1015
  • 241920Z 04004KT 010V080 9999 FEW035 BKN050 22/18 Q1015
  • 241850Z 04004KT 350V080 9999 -RA SCT035 SCT060 22/18 Q1015
  • 241820Z 22001KT 9999 -RA FEW035TCU BKN060 22/16 Q1016 RETS
  • 241750Z VRB02KT 9999 -TSRA FEW030CB SCT060 23/17 Q1015

TAF TAF LIMJ
Valide du 24 à 18h jusqu'au 25 à 18h UTC


241700Z 2418/2518 03007KT 9999 SCT040
Pas de NOTAMs connus pour ce terrain.
1 SIGMET publié pour la FIR Milano (LIMM) :
 
Turbulence forte
LIMM SIGMET 2 VALID 241900/242200 LIIP
LIMM MILANO FIR SEV TURB FCST W OF LINE N4631 E00941 - N4315 E00901 FL250/330 MOV E NC=



MET'MAP, la Météo Aéronautique d'un coup d'oeil ! - Copyright ORBIFLY Décembre 2007 - Disclaimer

ORBIFLY MET'MAP TEAM :

Programmation & Développement : Alexandra Zaïnal
Conception & Développement : Baudouin d'Aumeries
Co-Programmation & Développement : Marc-Olivier Méhu
Soutien technique & logistique : Manuel Goepfert

Contact : metmap@orbifly.com




SOURCES & CREDITS :

   NOAA